Time;durP1;ratioP1;P1;durP2;ratioP2;P2;SDS_P1;SDS_P2;PMS_P1;PMS_P2;Temp;Humidity;BMP_temperature;BMP_pressure;BME280_temperature;BME280_humidity;BME280_pressure;Samples;Min_cycle;Max_cycle;Signal;HPM_P1;HPM_P2
2024/04/21 00:04:39;;;;;;;13.73;2.63;;;;;5.10;101864.00;;;;10454996;27;20349;-78
2024/04/21 00:09:40;;;;;;;10.90;2.40;;;;;5.10;101855.00;;;;10487505;27;20258;-78
2024/04/21 00:14:42;;;;;;;9.07;2.30;;;;;5.20;101850.00;;;;10429511;28;20285;-77
2024/04/21 00:19:43;;;;;;;15.70;2.43;;;;;5.20;101841.00;;;;10462951;28;20270;-78
2024/04/21 00:24:45;;;;;;;12.30;2.27;;;;;5.20;101841.00;;;;10452235;28;21531;-77
2024/04/21 00:29:46;;;;;;;8.90;2.50;;;;;5.10;101843.00;;;;10464602;28;20302;-77
2024/04/21 00:34:48;;;;;;;6.83;2.43;;;;;5.10;101838.00;;;;10485950;28;21176;-77
2024/04/21 00:39:50;;;;;;;7.57;2.00;;;;;5.20;101835.00;;;;10472482;28;20800;-77
2024/04/21 00:44:51;;;;;;;8.53;2.47;;;;;5.20;101832.00;;;;10461735;28;20274;-78
2024/04/21 00:49:53;;;;;;;9.83;2.33;;;;;5.20;101831.00;;;;10465491;28;20259;-77
2024/04/21 00:54:55;;;;;;;10.33;2.20;;;;;5.20;101835.00;;;;10478761;27;20278;-76
2024/04/21 00:59:56;;;;;;;9.53;2.17;;;;;5.20;101822.00;;;;10467813;28;20655;-76
2024/04/21 01:04:58;;;;;;;10.77;2.77;;;;;5.20;101814.00;;;;10454551;27;21154;-77
2024/04/21 01:10:00;;;;;;;9.27;2.30;;;;;5.10;101817.00;;;;10479921;27;20266;-77
2024/04/21 01:15:03;;;;;;;9.00;2.57;;;;;5.20;101807.00;;;;10494443;27;20391;-77
2024/04/21 01:20:05;;;;;;;4.47;1.57;;;;;5.20;101784.00;;;;10426910;28;20384;-78
2024/04/21 01:25:07;;;;;;;16.37;2.60;;;;;5.20;101790.00;;;;10461833;28;20262;-78
2024/04/21 01:30:09;;;;;;;7.03;2.03;;;;;5.20;101783.00;;;;10436448;28;20266;-77
2024/04/21 01:35:10;;;;;;;14.03;2.10;;;;;5.10;101788.00;;;;10465253;27;20766;-76
2024/04/21 01:40:12;;;;;;;11.23;2.37;;;;;5.10;101782.00;;;;10463986;28;20275;-79
2024/04/21 01:45:13;;;;;;;7.70;1.70;;;;;5.10;101777.00;;;;10455899;28;20254;-76
2024/04/21 01:50:15;;;;;;;9.33;1.90;;;;;5.10;101781.00;;;;10460724;28;20266;-77
2024/04/21 01:55:17;;;;;;;8.63;2.03;;;;;5.10;101782.00;;;;10490698;28;20304;-77
2024/04/21 02:00:18;;;;;;;7.83;1.47;;;;;4.90;101769.00;;;;10495405;27;20262;-77
2024/04/21 02:05:20;;;;;;;4.80;1.47;;;;;4.90;101763.00;;;;10484706;27;20269;-77
2024/04/21 02:10:21;;;;;;;6.93;1.60;;;;;4.80;101771.00;;;;10455100;28;22980;-77
2024/04/21 02:15:23;;;;;;;9.67;2.07;;;;;4.80;101766.00;;;;10445721;28;20811;-81
2024/04/21 02:20:24;;;;;;;9.47;2.30;;;;;4.80;101756.00;;;;10454360;28;20630;-81
2024/04/21 02:25:26;;;;;;;7.27;2.17;;;;;4.70;101726.00;;;;10454869;28;20811;-81
2024/04/21 02:30:28;;;;;;;10.13;2.07;;;;;4.40;101746.00;;;;10479863;27;20281;-81
2024/04/21 02:35:30;;;;;;;7.23;1.70;;;;;4.20;101753.00;;;;10446974;28;20277;-80
2024/04/21 02:40:31;;;;;;;6.63;2.13;;;;;4.10;101759.00;;;;10448962;27;20297;-81
2024/04/21 02:45:32;;;;;;;8.20;1.80;;;;;4.10;101747.00;;;;10445677;28;20399;-80
2024/04/21 02:50:35;;;;;;;10.40;1.83;;;;;4.20;101740.00;;;;10477455;28;20935;-81
2024/04/21 02:55:43;;;;;;;8.67;2.40;;;;;4.20;101749.00;;;;10443606;28;20266;-81
2024/04/21 03:00:44;;;;;;;7.33;2.60;;;;;4.20;101736.00;;;;10453942;28;20271;-80
2024/04/21 03:05:56;;;;;;;5.20;1.73;;;;;4.10;101727.00;;;;10440950;27;20304;-80
2024/04/21 03:10:57;;;;;;;4.77;1.60;;;;;4.00;101724.00;;;;10439153;28;20289;-80
2024/04/21 03:16:03;;;;;;;8.67;1.70;;;;;3.80;101718.00;;;;10471728;28;20285;-80
2024/04/21 03:21:04;;;;;;;8.10;2.20;;;;;3.70;101731.00;;;;10444081;28;20267;-81
2024/04/21 03:26:06;;;;;;;11.70;2.10;;;;;3.60;101731.00;;;;10490600;27;20266;-85
2024/04/21 03:31:07;;;;;;;8.57;2.03;;;;;3.50;101716.00;;;;10511929;28;20336;-87
2024/04/21 03:36:10;;;;;;;5.07;1.53;;;;;3.30;101705.00;;;;10510802;27;20267;-85
2024/04/21 03:41:35;;;;;;;6.70;1.87;;;;;3.40;101705.00;;;;10977298;22;20325;31
2024/04/21 03:46:37;;;;;;;10.50;1.93;;;;;3.50;101727.00;;;;11269153;22;20276;-84
2024/04/21 03:51:38;;;;;;;7.20;1.80;;;;;3.70;101706.00;;;;10726731;22;20295;-85
2024/04/21 03:56:40;;;;;;;5.17;1.50;;;;;3.80;101707.00;;;;10533796;27;20277;-84
2024/04/21 04:01:43;;;;;;;4.20;1.20;;;;;3.70;101700.00;;;;10508381;27;20965;-85
2024/04/21 04:06:45;;;;;;;7.93;1.33;;;;;3.60;101703.00;;;;10530376;27;20880;-84
2024/04/21 04:11:46;;;;;;;5.37;1.40;;;;;3.50;101701.00;;;;10504520;27;20264;-83
2024/04/21 04:16:48;;;;;;;7.27;1.87;;;;;3.30;101693.00;;;;10530886;27;20301;-83
2024/04/21 04:21:49;;;;;;;8.07;1.40;;;;;3.30;101691.00;;;;10487438;28;20306;-83
2024/04/21 04:26:51;;;;;;;6.50;1.73;;;;;3.20;101677.00;;;;10442659;28;20296;-83
2024/04/21 04:31:52;;;;;;;3.10;2.13;;;;;3.20;101680.00;;;;10481547;27;20729;-81
2024/04/21 04:36:53;;;;;;;4.53;1.13;;;;;3.10;101667.00;;;;10493138;27;20397;-81
2024/04/21 04:41:55;;;;;;;8.17;1.63;;;;;3.10;101651.00;;;;10444040;28;20262;-80
2024/04/21 04:46:56;;;;;;;11.77;2.20;;;;;3.10;101662.00;;;;10474846;28;20274;-80
2024/04/21 04:51:58;;;;;;;5.33;1.50;;;;;3.10;101650.00;;;;10410585;28;20346;-81
2024/04/21 04:56:59;;;;;;;8.13;1.50;;;;;3.10;101651.00;;;;10465403;28;20262;-79
2024/04/21 05:02:01;;;;;;;8.67;1.63;;;;;3.20;101641.00;;;;10441165;27;20293;-80
2024/04/21 05:07:03;;;;;;;7.30;1.50;;;;;3.20;101624.00;;;;10473120;27;20308;-80
2024/04/21 05:12:04;;;;;;;6.07;1.47;;;;;3.30;101623.00;;;;10455931;28;21047;-80
2024/04/21 05:17:06;;;;;;;10.33;1.77;;;;;3.50;101631.00;;;;10492061;28;21250;-81
2024/04/21 05:22:07;;;;;;;5.63;1.20;;;;;3.70;101628.00;;;;10488256;27;20365;-82
2024/04/21 05:27:09;;;;;;;8.80;1.97;;;;;3.80;101620.00;;;;10459684;27;20890;-82
2024/04/21 05:32:10;;;;;;;5.87;1.20;;;;;3.90;101633.00;;;;10494607;27;20356;-81
2024/04/21 05:37:12;;;;;;;6.40;1.33;;;;;4.00;101637.00;;;;10442362;28;20297;-81
2024/04/21 05:42:13;;;;;;;4.30;1.33;;;;;4.10;101633.00;;;;10458651;27;20266;-85
2024/04/21 05:47:15;;;;;;;7.07;1.63;;;;;4.00;101641.00;;;;10475799;27;20289;-85
2024/04/21 05:52:17;;;;;;;9.50;1.97;;;;;4.00;101631.00;;;;10470059;27;20266;-86
2024/04/21 05:57:19;;;;;;;8.83;1.60;;;;;4.00;101631.00;;;;10464203;28;20282;-83
2024/04/21 06:02:20;;;;;;;8.43;1.70;;;;;3.90;101629.00;;;;10436310;28;20328;-86
2024/04/21 06:07:22;;;;;;;11.23;1.73;;;;;3.90;101643.00;;;;10467597;27;20708;-86
2024/04/21 06:12:23;;;;;;;8.70;1.87;;;;;3.90;101647.00;;;;10478203;27;20473;-84
2024/04/21 06:17:25;;;;;;;4.80;1.33;;;;;3.90;101642.00;;;;10526996;27;20265;-84
2024/04/21 06:22:26;;;;;;;2.37;0.97;;;;;3.90;101646.00;;;;10480627;27;20321;-84
2024/04/21 06:27:29;;;;;;;6.40;1.53;;;;;4.10;101643.00;;;;10475610;28;20316;-84
2024/04/21 06:32:31;;;;;;;3.87;0.90;;;;;4.30;101636.00;;;;10492622;27;20307;-83
2024/04/21 06:37:32;;;;;;;2.80;1.20;;;;;4.50;101629.00;;;;10501435;27;20270;-84
2024/04/21 06:42:34;;;;;;;4.30;1.33;;;;;5.70;101635.00;;;;10456497;28;20289;-85
2024/04/21 06:47:35;;;;;;;10.27;1.37;;;;;6.40;101639.00;;;;10493339;27;20916;-83
2024/04/21 06:52:37;;;;;;;3.50;0.90;;;;;6.90;101646.00;;;;10472938;28;20267;-79
2024/04/21 06:57:40;;;;;;;2.50;0.70;;;;;6.40;101647.00;;;;10477759;28;20282;-79
2024/04/21 07:02:42;;;;;;;8.83;1.60;;;;;7.30;101647.00;;;;10463667;28;20300;-78
2024/04/21 07:07:43;;;;;;;5.07;1.13;;;;;7.00;101655.00;;;;10500749;27;20314;-80
2024/04/21 07:12:45;;;;;;;4.87;1.70;;;;;6.90;101638.00;;;;10448357;28;20274;-79
2024/04/21 07:17:46;;;;;;;8.63;1.57;;;;;6.90;101654.00;;;;10471123;28;20738;-79
2024/04/21 07:22:48;;;;;;;15.53;2.00;;;;;6.80;101651.00;;;;10503164;27;20262;-79
2024/04/21 07:27:49;;;;;;;8.90;1.63;;;;;7.00;101658.00;;;;10469350;28;20371;-79
2024/04/21 07:32:51;;;;;;;7.20;1.47;;;;;7.10;101669.00;;;;10479029;28;20297;-79
2024/04/21 07:37:52;;;;;;;8.00;1.60;;;;;7.10;101666.00;;;;10465225;28;20289;-79
2024/04/21 07:42:54;;;;;;;7.17;1.37;;;;;7.70;101655.00;;;;10464647;28;20270;-79
2024/04/21 07:47:55;;;;;;;6.47;1.87;;;;;7.70;101676.00;;;;10438265;28;20284;-79
2024/04/21 07:52:57;;;;;;;8.03;1.50;;;;;7.70;101676.00;;;;10478891;27;20304;-80
2024/04/21 07:57:59;;;;;;;5.93;1.50;;;;;7.60;101681.00;;;;10482438;28;20309;-79
2024/04/21 08:03:01;;;;;;;5.23;1.33;;;;;7.90;101682.00;;;;10503164;27;20293;-79
2024/04/21 08:08:03;;;;;;;4.03;1.40;;;;;7.70;101690.00;;;;10483393;28;20274;-78
2024/04/21 08:13:05;;;;;;;3.10;1.00;;;;;7.30;101712.00;;;;10496553;28;20362;-78
2024/04/21 08:18:06;;;;;;;5.37;1.40;;;;;7.10;101719.00;;;;10467440;28;20274;-77
2024/04/21 08:23:08;;;;;;;4.60;1.60;;;;;8.50;101713.00;;;;10471347;27;20304;-77
2024/04/21 08:28:09;;;;;;;3.10;1.23;;;;;10.20;101737.00;;;;10475283;28;20286;-76
2024/04/21 08:33:11;;;;;;;3.63;1.87;;;;;9.50;101744.00;;;;10469721;28;20394;-78
2024/04/21 08:38:12;;;;;;;4.50;1.70;;;;;9.00;101752.00;;;;10495120;28;20292;-78
2024/04/21 08:43:25;;;;;;;1.83;1.37;;;;;9.30;101769.00;;;;10461038;28;20266;-77
2024/04/21 08:48:29;;;;;;;1.43;1.27;;;;;8.70;101787.00;;;;10454243;28;20860;-77
2024/04/21 08:53:30;;;;;;;2.27;1.00;;;;;9.20;101773.00;;;;10481713;27;20267;-76
2024/04/21 08:58:32;;;;;;;3.10;0.80;;;;;8.80;101774.00;;;;10474371;27;20373;-76
2024/04/21 09:03:37;;;;;;;6.13;1.00;;;;;9.10;101789.00;;;;10491227;27;20946;-78
2024/04/21 09:08:39;;;;;;;1.23;0.87;;;;;9.40;101793.00;;;;10505874;28;21067;-79
2024/04/21 09:13:40;;;;;;;1.47;0.50;;;;;9.30;101801.00;;;;10484159;27;20307;-78
2024/04/21 09:18:41;;;;;;;2.07;0.70;;;;;9.10;101807.00;;;;10444634;27;20277;-80
2024/04/21 09:23:43;;;;;;;0.83;0.53;;;;;8.60;101827.00;;;;10460025;28;20300;-81
2024/04/21 09:28:44;;;;;;;1.03;0.50;;;;;8.70;101832.00;;;;10504585;28;20270;-80
2024/04/21 09:33:49;;;;;;;1.67;0.70;;;;;8.90;101845.00;;;;10430846;28;20621;-79
2024/04/21 09:38:51;;;;;;;1.57;0.73;;;;;9.30;101847.00;;;;10453524;28;20278;-80
2024/04/21 09:43:54;;;;;;;2.80;1.40;;;;;9.50;101857.00;;;;10510260;27;20347;-81
2024/04/21 09:48:56;;;;;;;3.50;0.80;;;;;9.20;101873.00;;;;10479253;28;20288;-79
2024/04/21 09:53:59;;;;;;;6.10;1.17;;;;;10.00;101854.00;;;;10488541;28;20274;-80
2024/04/21 09:59:05;;;;;;;3.37;1.53;;;;;10.80;101860.00;;;;10496909;28;20266;-79
2024/04/21 10:04:15;;;;;;;3.13;1.17;;;;;12.30;101859.00;;;;10460346;27;20296;-79
2024/04/21 10:09:19;;;;;;;1.53;1.13;;;;;13.10;101873.00;;;;10447766;27;21080;-78
2024/04/21 10:14:21;;;;;;;1.33;0.90;;;;;11.20;101880.00;;;;10469762;27;20270;-80
2024/04/21 10:19:25;;;;;;;2.27;1.00;;;;;10.90;101880.00;;;;10502814;27;21182;-80
2024/04/21 10:24:27;;;;;;;4.20;1.30;;;;;12.30;101875.00;;;;10466408;28;20709;-85
2024/04/21 10:29:29;;;;;;;3.37;1.33;;;;;14.40;101871.00;;;;10499083;27;20281;-84
2024/04/21 10:34:31;;;;;;;4.50;1.25;;;;;13.30;101905.00;;;;10465531;27;20317;-83
2024/04/21 10:39:32;;;;;;;3.47;1.17;;;;;12.10;101899.00;;;;10513957;27;20715;-85
2024/04/21 10:44:34;;;;;;;1.87;0.90;;;;;13.00;101890.00;;;;10446052;28;20265;-84
2024/04/21 10:49:35;;;;;;;2.47;1.20;;;;;13.30;101909.00;;;;10446140;27;20266;-84
2024/04/21 10:54:36;;;;;;;2.83;1.00;;;;;13.40;101910.00;;;;10445435;28;20440;-81
2024/04/21 10:59:38;;;;;;;5.10;1.10;;;;;13.30;101901.00;;;;10466377;28;20262;-80
2024/04/21 11:04:41;;;;;;;4.70;1.50;;;;;13.60;101896.00;;;;10480405;28;20363;-83
2024/04/21 11:09:43;;;;;;;3.53;1.17;;;;;13.00;101917.00;;;;10446746;27;20267;-82
2024/04/21 11:14:44;;;;;;;3.80;1.20;;;;;13.20;101912.00;;;;10494324;28;20270;-80
2024/04/21 11:19:46;;;;;;;2.23;1.10;;;;;13.00;101926.00;;;;10506175;27;20371;-83
2024/04/21 11:24:48;;;;;;;4.87;1.30;;;;;13.90;101934.00;;;;10467776;28;20390;-81
2024/04/21 11:29:50;;;;;;;3.78;1.10;;;;;13.70;101930.00;;;;10436410;27;20267;-82
2024/04/21 11:34:51;;;;;;;3.13;1.20;;;;;14.30;101925.00;;;;10436348;28;20372;-80
2024/04/21 11:39:53;;;;;;;5.45;1.60;;;;;14.00;101937.00;;;;10451840;27;20647;-79
2024/04/21 11:44:54;;;;;;;3.92;1.00;;;;;14.70;101942.00;;;;10490236;27;20637;-79
2024/04/21 11:49:56;;;;;;;5.43;1.35;;;;;15.60;101948.00;;;;10451892;27;20863;-79
2024/04/21 11:54:57;;;;;;;3.63;1.02;;;;;14.70;101946.00;;;;10512983;27;20322;-78
2024/04/21 11:59:59;;;;;;;6.20;1.08;;;;;14.90;101930.00;;;;10457165;27;21052;-78
2024/04/21 12:05:05;;;;;;;2.95;1.13;;;;;16.70;101934.00;;;;10471234;27;20277;-78
2024/04/21 12:10:07;;;;;;;6.75;1.40;;;;;16.10;101956.00;;;;10470766;28;20289;-79
2024/04/21 12:15:09;;;;;;;4.95;1.20;;;;;14.60;101961.00;;;;10471748;28;20354;-78
2024/04/21 12:20:10;;;;;;;4.78;1.50;;;;;15.00;101963.00;;;;10485996;27;20261;-78
2024/04/21 12:25:11;;;;;;;5.60;1.38;;;;;14.50;101967.00;;;;10476741;27;20346;-78
2024/04/21 12:30:14;;;;;;;3.40;1.30;;;;;13.70;101966.00;;;;10439647;27;20729;-78
2024/04/21 12:35:15;;;;;;;5.65;1.73;;;;;14.10;101957.00;;;;10448617;28;20270;-79
2024/04/21 12:40:17;;;;;;;4.03;1.02;;;;;14.30;101978.00;;;;10435145;28;20372;-79
2024/04/21 12:45:18;;;;;;;7.00;1.42;;;;;15.70;101961.00;;;;10479599;28;20254;-81
2024/04/21 12:50:20;;;;;;;3.50;1.23;;;;;17.40;101968.00;;;;10511559;27;20266;-80
2024/04/21 12:55:21;;;;;;;5.53;1.60;;;;;15.40;101974.00;;;;10416642;27;22677;-81
2024/04/21 13:00:23;;;;;;;4.63;1.30;;;;;13.70;101972.00;;;;10478428;28;20303;-81
2024/04/21 13:05:24;;;;;;;4.97;1.55;;;;;15.30;101964.00;;;;10477247;27;20292;-81
2024/04/21 13:10:26;;;;;;;4.45;1.42;;;;;16.70;101965.00;;;;10487636;27;20313;-83
2024/04/21 13:15:28;;;;;;;3.63;1.45;;;;;15.90;101967.00;;;;10451171;27;20269;-83
2024/04/21 13:20:29;;;;;;;3.30;1.42;;;;;14.90;101960.00;;;;10454835;27;20266;-82
2024/04/21 13:25:30;;;;;;;3.45;1.38;;;;;15.90;101971.00;;;;10491112;28;20288;-81
2024/04/21 13:30:34;;;;;;;2.25;1.13;;;;;14.40;101974.00;;;;10501317;27;20266;-82
2024/04/21 13:35:35;;;;;;;6.25;1.88;;;;;13.60;101954.00;;;;10475197;27;20265;-81
2024/04/21 13:40:37;;;;;;;4.00;1.65;;;;;13.60;101958.00;;;;10488217;28;21545;-82
2024/04/21 13:45:39;;;;;;;2.97;1.65;;;;;15.00;101954.00;;;;10480225;27;20285;-82
2024/04/21 13:50:40;;;;;;;6.75;1.95;;;;;16.30;101948.00;;;;10467417;28;20322;-83
2024/04/21 13:55:42;;;;;;;4.03;1.90;;;;;16.60;101964.00;;;;10490294;27;20262;-84
2024/04/21 14:00:43;;;;;;;4.35;1.77;;;;;14.90;101971.00;;;;10472854;28;20277;-84
2024/04/21 14:05:45;;;;;;;2.55;1.65;;;;;15.10;101951.00;;;;10495774;27;20277;-84
2024/04/21 14:10:46;;;;;;;4.47;1.60;;;;;16.70;101960.00;;;;10458416;28;20288;-83
2024/04/21 14:15:48;;;;;;;1.95;1.65;;;;;16.00;101961.00;;;;10472866;27;20326;-84
2024/04/21 14:20:49;;;;;;;4.60;1.73;;;;;14.50;101966.00;;;;10455269;27;20318;-86
2024/04/21 14:25:51;;;;;;;3.92;1.83;;;;;13.60;101962.00;;;;10487951;28;20483;-84
2024/04/21 14:30:52;;;;;;;3.78;1.48;;;;;13.20;101961.00;;;;10455917;28;20274;-85
2024/04/21 14:35:54;;;;;;;3.67;1.63;;;;;15.00;101952.00;;;;10473504;27;20374;-83
2024/04/21 14:40:55;;;;;;;2.45;1.73;;;;;16.20;101967.00;;;;10488242;27;20277;-84
2024/04/21 14:45:57;;;;;;;4.28;1.60;;;;;14.90;101963.00;;;;10496483;28;20286;-84
2024/04/21 14:51:01;;;;;;;4.50;1.70;;;;;13.60;101967.00;;;;10509071;27;20310;-85
2024/04/21 14:56:06;;;;;;;2.38;1.30;;;;;13.10;101967.00;;;;10466941;27;20298;-84
2024/04/21 15:01:08;;;;;;;2.83;1.27;;;;;13.40;101965.00;;;;10465512;27;20730;-85
2024/04/21 15:06:09;;;;;;;1.90;1.40;;;;;12.90;101962.00;;;;10447453;28;20298;-81
2024/04/21 15:11:10;;;;;;;1.52;1.08;;;;;12.50;101961.00;;;;10500612;27;20305;-83
2024/04/21 15:16:12;;;;;;;3.33;1.00;;;;;12.50;101946.00;;;;10456403;27;20278;-83
2024/04/21 15:21:14;;;;;;;3.40;1.20;;;;;12.00;101955.00;;;;10506251;27;20278;-81
2024/04/21 15:26:15;;;;;;;3.90;1.43;;;;;12.50;101953.00;;;;10472009;28;20310;-81
2024/04/21 15:31:17;;;;;;;1.50;0.93;;;;;12.90;101958.00;;;;10454742;28;20312;-82
2024/04/21 15:36:18;;;;;;;3.07;1.20;;;;;12.80;101948.00;;;;10471602;27;21149;-83
2024/04/21 15:41:19;;;;;;;3.27;1.13;;;;;12.50;101955.00;;;;10455498;28;20288;-82
2024/04/21 15:46:21;;;;;;;3.00;1.50;;;;;12.60;101961.00;;;;10469652;27;20270;-81
2024/04/21 15:51:24;;;;;;;3.17;1.00;;;;;12.10;101954.00;;;;10468229;28;20285;-81
2024/04/21 15:56:25;;;;;;;1.83;1.13;;;;;12.40;101951.00;;;;10431082;28;20283;-80
2024/04/21 16:01:27;;;;;;;2.30;1.07;;;;;12.60;101949.00;;;;10470331;28;20387;-81
2024/04/21 16:06:28;;;;;;;2.77;1.10;;;;;12.60;101952.00;;;;10441695;27;20266;-82
2024/04/21 16:11:30;;;;;;;1.30;1.10;;;;;12.50;101941.00;;;;10450258;27;20277;-78
2024/04/21 16:16:32;;;;;;;0.93;0.90;;;;;12.50;101951.00;;;;10470998;27;20274;-83
2024/04/21 16:21:34;;;;;;;1.87;0.90;;;;;12.00;101950.00;;;;10487520;28;20308;-82
2024/04/21 16:26:35;;;;;;;1.80;1.23;;;;;11.60;101940.00;;;;10432663;27;20312;-82
2024/04/21 16:31:41;;;;;;;2.80;1.30;;;;;11.30;101939.00;;;;10463686;27;20320;-81
2024/04/21 16:36:43;;;;;;;2.57;1.20;;;;;11.20;101938.00;;;;10444781;28;21141;-82
2024/04/21 16:41:44;;;;;;;1.03;0.80;;;;;11.40;101947.00;;;;10453675;28;20323;-82
2024/04/21 16:46:49;;;;;;;1.33;1.00;;;;;11.40;101955.00;;;;10463261;28;20316;-81
2024/04/21 16:51:51;;;;;;;1.93;1.43;;;;;11.20;101956.00;;;;10462966;28;20266;-82
2024/04/21 16:56:54;;;;;;;3.50;1.30;;;;;11.30;101952.00;;;;10460455;28;20305;-83
2024/04/21 17:02:11;;;;;;;2.10;1.40;;;;;11.80;101950.00;;;;10456895;28;20261;-83
2024/04/21 17:07:16;;;;;;;4.53;1.70;;;;;12.00;101956.00;;;;10468445;28;20724;-82
2024/04/21 17:12:21;;;;;;;2.43;1.80;;;;;12.20;101973.00;;;;10498310;28;20350;-84
2024/04/21 17:17:22;;;;;;;1.83;1.50;;;;;11.50;102004.00;;;;10432355;27;20262;-83
2024/04/21 17:22:24;;;;;;;1.57;1.47;;;;;10.30;102018.00;;;;10477017;28;20285;-78
2024/04/21 17:27:25;;;;;;;1.40;1.30;;;;;9.40;102033.00;;;;10433590;27;20308;-76
2024/04/21 17:32:27;;;;;;;2.43;1.03;;;;;8.60;102035.00;;;;10468139;28;21072;-82
2024/04/21 17:37:28;;;;;;;1.73;1.10;;;;;7.80;102025.00;;;;10472576;28;20273;-81
2024/04/21 17:42:30;;;;;;;1.20;1.10;;;;;7.70;102014.00;;;;10469315;28;20304;-78
2024/04/21 17:47:31;;;;;;;1.87;1.10;;;;;7.80;102012.00;;;;10455334;27;20266;-77
2024/04/21 17:52:33;;;;;;;1.77;1.40;;;;;7.70;102021.00;;;;10467237;28;20270;-76
2024/04/21 17:57:35;;;;;;;2.13;1.30;;;;;7.60;102024.00;;;;10462769;27;20302;-77
2024/04/21 18:02:36;;;;;;;2.03;1.40;;;;;7.40;102025.00;;;;10502902;27;20374;-77
2024/04/21 18:07:41;;;;;;;1.57;1.30;;;;;7.30;102035.00;;;;10459066;27;20263;-78
2024/04/21 18:12:42;;;;;;;1.97;1.50;;;;;7.20;102037.00;;;;10459121;27;20266;-79
2024/04/21 18:17:44;;;;;;;2.40;1.50;;;;;7.20;102034.00;;;;10461448;28;20348;-78
2024/04/21 18:22:45;;;;;;;1.50;1.30;;;;;7.10;102035.00;;;;10462725;27;20316;-77
2024/04/21 18:27:47;;;;;;;1.83;1.53;;;;;7.00;102031.00;;;;10461795;27;20298;-77
2024/04/21 18:32:50;;;;;;;3.27;1.90;;;;;6.80;102033.00;;;;10411796;27;20297;-84
2024/04/21 18:37:51;;;;;;;3.30;1.70;;;;;6.70;102018.00;;;;10438952;27;20889;-83
2024/04/21 18:42:53;;;;;;;2.17;1.70;;;;;6.60;102027.00;;;;10496068;27;20441;-83
2024/04/21 18:47:54;;;;;;;3.03;2.20;;;;;6.40;102040.00;;;;10425784;28;20376;-85
2024/04/21 18:52:56;;;;;;;18.80;11.40;;;;;6.40;102059.00;;;;10499756;27;20274;-86
2024/04/21 18:57:57;;;;;;;4.53;3.83;;;;;6.30;102055.00;;;;10442405;27;21997;-83
2024/04/21 19:02:59;;;;;;;13.73;8.93;;;;;6.30;102063.00;;;;10407115;28;20400;-84
2024/04/21 19:08:03;;;;;;;10.07;5.67;;;;;6.30;102065.00;;;;10443670;27;20270;-85
2024/04/21 19:13:05;;;;;;;2.47;2.27;;;;;6.40;102072.00;;;;10494929;27;20258;-85
2024/04/21 19:18:08;;;;;;;2.40;2.13;;;;;6.40;102068.00;;;;10468982;27;20296;-85
2024/04/21 19:23:11;;;;;;;3.13;2.10;;;;;6.40;102070.00;;;;10464226;28;20300;-85
2024/04/21 19:28:13;;;;;;;5.10;2.47;;;;;6.40;102075.00;;;;10452884;27;21083;-84
2024/04/21 19:33:15;;;;;;;6.00;2.40;;;;;6.40;102083.00;;;;10421758;27;20262;-85
2024/04/21 19:38:16;;;;;;;5.57;2.30;;;;;6.40;102075.00;;;;10492528;27;20266;-85
2024/04/21 19:43:18;;;;;;;2.53;2.03;;;;;6.50;102086.00;;;;10494892;27;20304;-81
2024/04/21 19:48:20;;;;;;;3.07;2.10;;;;;6.60;102097.00;;;;10485744;27;20308;-82
2024/04/21 19:53:22;;;;;;;3.07;2.43;;;;;6.60;102107.00;;;;10431268;28;20285;-82
2024/04/21 19:58:27;;;;;;;3.20;2.17;;;;;6.50;102112.00;;;;10492509;27;20297;-82
2024/04/21 20:03:28;;;;;;;2.40;2.20;;;;;6.50;102115.00;;;;10446821;27;21106;-81
2024/04/21 20:08:30;;;;;;;3.23;2.43;;;;;6.50;102109.00;;;;10505106;27;20316;-81
2024/04/21 20:13:32;;;;;;;2.73;1.93;;;;;6.50;102111.00;;;;10470093;28;20395;-83
2024/04/21 20:18:39;;;;;;;2.20;1.97;;;;;6.50;102112.00;;;;10503457;27;20261;-82
2024/04/21 20:23:41;;;;;;;3.47;2.20;;;;;6.40;102110.00;;;;10477163;28;20710;-81
2024/04/21 20:28:43;;;;;;;2.90;2.20;;;;;6.20;102110.00;;;;10467069;27;20267;-83
2024/04/21 20:33:46;;;;;;;3.00;2.43;;;;;6.00;102120.00;;;;10426099;28;20297;-82
2024/04/21 20:38:48;;;;;;;3.10;2.40;;;;;5.90;102111.00;;;;10453266;27;20285;-82
2024/04/21 20:43:51;;;;;;;3.23;2.20;;;;;5.70;102122.00;;;;10426983;27;20262;-82
2024/04/21 20:48:53;;;;;;;6.17;2.53;;;;;5.60;102129.00;;;;10466747;27;20264;-82
2024/04/21 20:53:54;;;;;;;3.73;2.63;;;;;5.40;102127.00;;;;10494849;27;20262;-84
2024/04/21 20:58:57;;;;;;;3.80;2.73;;;;;5.30;102127.00;;;;10433053;27;20313;-86
2024/04/21 21:03:58;;;;;;;3.63;2.87;;;;;5.20;102131.00;;;;10466812;27;20265;-85
2024/04/21 21:08:59;;;;;;;3.47;2.27;;;;;5.20;102137.00;;;;10423572;27;21074;-84
2024/04/21 21:14:01;;;;;;;2.73;2.53;;;;;5.10;102131.00;;;;10476719;27;20288;-85
2024/04/21 21:19:02;;;;;;;2.87;2.03;;;;;5.00;102121.00;;;;10449059;27;20274;-85
2024/04/21 21:24:04;;;;;;;2.20;2.00;;;;;4.90;102128.00;;;;10472359;27;20297;-85
2024/04/21 21:29:05;;;;;;;3.03;2.00;;;;;4.90;102140.00;;;;10477077;27;20270;-84
2024/04/21 21:34:07;;;;;;;3.70;2.67;;;;;4.80;102126.00;;;;10491774;27;20262;-84
2024/04/21 21:39:09;;;;;;;4.03;2.83;;;;;4.80;102125.00;;;;10446950;27;20274;-85
2024/04/21 21:44:10;;;;;;;4.63;2.87;;;;;4.80;102133.00;;;;10463518;27;20317;-85
2024/04/21 21:49:12;;;;;;;3.13;2.60;;;;;4.70;102137.00;;;;10425676;27;20290;-84
2024/04/21 21:54:13;;;;;;;3.37;2.73;;;;;4.60;102134.00;;;;10469458;27;20308;-86
2024/04/21 21:59:15;;;;;;;2.90;2.57;;;;;4.50;102141.00;;;;10462974;28;21193;-84
2024/04/21 22:04:16;;;;;;;3.80;2.77;;;;;4.50;102143.00;;;;10500987;27;20270;-80
2024/04/21 22:09:18;;;;;;;3.20;2.70;;;;;4.40;102141.00;;;;10444616;27;20262;-80
2024/04/21 22:14:19;;;;;;;5.00;3.77;;;;;4.40;102131.00;;;;10491547;27;21281;-80
2024/04/21 22:19:20;;;;;;;4.03;3.27;;;;;4.40;102130.00;;;;10467103;28;20274;-80
2024/04/21 22:24:22;;;;;;;4.27;3.50;;;;;4.40;102136.00;;;;10448851;27;20502;-80
2024/04/21 22:29:23;;;;;;;4.73;3.23;;;;;4.30;102136.00;;;;10446510;27;20262;-80
2024/04/21 22:34:25;;;;;;;3.80;3.17;;;;;4.20;102133.00;;;;10472443;27;20266;-80
2024/04/21 22:39:26;;;;;;;3.97;3.57;;;;;4.20;102136.00;;;;10442255;28;20876;-80
2024/04/21 22:44:27;;;;;;;3.67;3.13;;;;;4.10;102144.00;;;;10505935;27;20266;-80
2024/04/21 22:49:29;;;;;;;4.93;3.27;;;;;4.00;102143.00;;;;10471387;27;20266;-80
2024/04/21 22:54:30;;;;;;;4.70;3.83;;;;;4.10;102147.00;;;;10459203;27;20919;-80
2024/04/21 22:59:32;;;;;;;7.60;3.80;;;;;4.10;102149.00;;;;10452211;27;20335;-81
2024/04/21 23:04:33;;;;;;;5.03;3.93;;;;;4.20;102153.00;;;;10474259;27;20307;-80
2024/04/21 23:09:35;;;;;;;4.60;3.43;;;;;4.20;102161.00;;;;10453107;27;20593;-80
2024/04/21 23:14:36;;;;;;;4.97;3.97;;;;;4.30;102156.00;;;;10464670;28;20717;-79
2024/04/21 23:19:38;;;;;;;4.70;4.00;;;;;4.30;102158.00;;;;10499226;27;20390;-79
2024/04/21 23:24:39;;;;;;;6.03;4.03;;;;;4.40;102163.00;;;;10467588;27;20282;-84
2024/04/21 23:29:41;;;;;;;6.33;4.20;;;;;4.50;102160.00;;;;10470026;27;20621;-84
2024/04/21 23:34:42;;;;;;;6.40;4.67;;;;;4.50;102147.00;;;;10440003;28;20314;-84
2024/04/21 23:39:44;;;;;;;5.90;4.37;;;;;4.60;102153.00;;;;10470202;27;20269;-84
2024/04/21 23:44:46;;;;;;;7.10;5.00;;;;;4.60;102149.00;;;;10478449;27;20270;-84
2024/04/21 23:49:47;;;;;;;5.13;4.40;;;;;4.60;102158.00;;;;10471973;27;20393;-84
2024/04/21 23:54:51;;;;;;;6.83;4.60;;;;;4.60;102150.00;;;;10471981;28;20266;-84
2024/04/21 23:59:53;;;;;;;5.87;4.53;;;;;4.70;102141.00;;;;10449923;28;20274;-84
